sensor_id;sensor_type;location;lat;lon;timestamp;pressure;altitude;pressure_sealevel;temperature;humidity
19286;BME280;9776;50.798;6.430;2022-09-01T00:02:13;100604.63;;;18.39;58.43
19286;BME280;9776;50.798;6.430;2022-09-01T00:04:42;100603.03;;;18.44;58.50
19286;BME280;9776;50.798;6.430;2022-09-01T00:07:10;100599.34;;;18.45;58.54
19286;BME280;9776;50.798;6.430;2022-09-01T00:09:38;100596.44;;;18.40;58.79
19286;BME280;9776;50.798;6.430;2022-09-01T00:12:07;100601.94;;;18.32;58.93
19286;BME280;9776;50.798;6.430;2022-09-01T00:14:37;100596.66;;;18.18;59.39
19286;BME280;9776;50.798;6.430;2022-09-01T00:17:06;100595.38;;;18.13;59.54
19286;BME280;9776;50.798;6.430;2022-09-01T00:19:33;100601.72;;;18.12;59.74
19286;BME280;9776;50.798;6.430;2022-09-01T00:22:01;100603.78;;;18.10;59.68
19286;BME280;9776;50.798;6.430;2022-09-01T00:24:29;100609.75;;;18.12;59.80
19286;BME280;9776;50.798;6.430;2022-09-01T00:26:56;100610.13;;;18.09;59.82
19286;BME280;9776;50.798;6.430;2022-09-01T00:29:24;100604.59;;;18.11;59.65
19286;BME280;9776;50.798;6.430;2022-09-01T00:31:51;100603.53;;;18.05;59.78
19286;BME280;9776;50.798;6.430;2022-09-01T00:34:20;100606.38;;;18.04;59.55
19286;BME280;9776;50.798;6.430;2022-09-01T00:36:47;100606.97;;;17.99;59.81
19286;BME280;9776;50.798;6.430;2022-09-01T00:39:14;100603.00;;;17.95;59.61
19286;BME280;9776;50.798;6.430;2022-09-01T00:41:41;100606.06;;;17.92;59.78
19286;BME280;9776;50.798;6.430;2022-09-01T00:44:12;100605.63;;;17.89;59.59
19286;BME280;9776;50.798;6.430;2022-09-01T00:46:43;100607.84;;;17.85;59.58
19286;BME280;9776;50.798;6.430;2022-09-01T00:49:12;100611.91;;;17.81;59.62
19286;BME280;9776;50.798;6.430;2022-09-01T00:51:43;100605.28;;;17.77;59.71
19286;BME280;9776;50.798;6.430;2022-09-01T00:54:16;100618.00;;;17.75;59.75
19286;BME280;9776;50.798;6.430;2022-09-01T00:56:44;100615.31;;;17.75;60.08
19286;BME280;9776;50.798;6.430;2022-09-01T00:59:12;100611.66;;;17.76;59.99
19286;BME280;9776;50.798;6.430;2022-09-01T01:01:42;100610.19;;;17.74;60.16
19286;BME280;9776;50.798;6.430;2022-09-01T01:04:09;100617.47;;;17.65;60.31
19286;BME280;9776;50.798;6.430;2022-09-01T01:06:40;100614.09;;;17.56;60.16
19286;BME280;9776;50.798;6.430;2022-09-01T01:09:08;100613.25;;;17.56;60.54
19286;BME280;9776;50.798;6.430;2022-09-01T01:11:35;100615.72;;;17.57;60.20
19286;BME280;9776;50.798;6.430;2022-09-01T01:14:06;100612.63;;;17.54;60.26
19286;BME280;9776;50.798;6.430;2022-09-01T01:16:37;100611.50;;;17.48;60.47
19286;BME280;9776;50.798;6.430;2022-09-01T01:19:15;100613.97;;;17.50;60.29
19286;BME280;9776;50.798;6.430;2022-09-01T01:22:00;100608.56;;;17.43;60.57
19286;BME280;9776;50.798;6.430;2022-09-01T01:24:54;100607.09;;;17.41;60.72
19286;BME280;9776;50.798;6.430;2022-09-01T01:27:22;100608.28;;;17.38;60.55
19286;BME280;9776;50.798;6.430;2022-09-01T01:29:49;100605.47;;;17.40;60.79
19286;BME280;9776;50.798;6.430;2022-09-01T01:32:19;100605.00;;;17.36;60.84
19286;BME280;9776;50.798;6.430;2022-09-01T01:34:45;100603.91;;;17.31;60.62
19286;BME280;9776;50.798;6.430;2022-09-01T01:37:12;100606.22;;;17.19;61.02
19286;BME280;9776;50.798;6.430;2022-09-01T01:39:40;100604.44;;;17.12;61.27
19286;BME280;9776;50.798;6.430;2022-09-01T01:42:10;100609.41;;;17.00;61.30
19286;BME280;9776;50.798;6.430;2022-09-01T01:44:37;100599.94;;;16.83;61.77
19286;BME280;9776;50.798;6.430;2022-09-01T01:47:06;100605.84;;;16.78;61.88
19286;BME280;9776;50.798;6.430;2022-09-01T01:49:36;100602.59;;;16.83;61.72
19286;BME280;9776;50.798;6.430;2022-09-01T01:52:04;100601.25;;;16.87;61.76
19286;BME280;9776;50.798;6.430;2022-09-01T01:54:31;100608.03;;;16.75;61.80
19286;BME280;9776;50.798;6.430;2022-09-01T01:56:57;100612.09;;;16.71;62.05
19286;BME280;9776;50.798;6.430;2022-09-01T01:59:26;100609.22;;;16.72;61.83
19286;BME280;9776;50.798;6.430;2022-09-01T02:01:54;100616.94;;;16.67;61.88
19286;BME280;9776;50.798;6.430;2022-09-01T02:04:21;100614.22;;;16.53;62.33
19286;BME280;9776;50.798;6.430;2022-09-01T02:06:49;100611.41;;;16.54;62.48
19286;BME280;9776;50.798;6.430;2022-09-01T02:09:18;100617.69;;;16.61;62.20
19286;BME280;9776;50.798;6.430;2022-09-01T02:11:45;100622.75;;;16.71;62.01
19286;BME280;9776;50.798;6.430;2022-09-01T02:14:12;100618.34;;;16.78;61.73
19286;BME280;9776;50.798;6.430;2022-09-01T02:16:41;100622.84;;;16.77;61.65
19286;BME280;9776;50.798;6.430;2022-09-01T02:19:08;100616.66;;;16.77;61.78
19286;BME280;9776;50.798;6.430;2022-09-01T02:21:36;100613.84;;;16.78;61.76
19286;BME280;9776;50.798;6.430;2022-09-01T02:24:07;100617.13;;;16.80;61.71
19286;BME280;9776;50.798;6.430;2022-09-01T02:26:37;100619.34;;;16.77;61.92
19286;BME280;9776;50.798;6.430;2022-09-01T02:29:08;100622.19;;;16.75;61.62
19286;BME280;9776;50.798;6.430;2022-09-01T02:31:45;100613.69;;;16.57;62.39
19286;BME280;9776;50.798;6.430;2022-09-01T02:34:12;100616.50;;;16.41;62.73
19286;BME280;9776;50.798;6.430;2022-09-01T02:36:40;100612.88;;;16.34;62.86
19286;BME280;9776;50.798;6.430;2022-09-01T02:39:08;100611.34;;;16.17;62.95
19286;BME280;9776;50.798;6.430;2022-09-01T02:41:35;100606.22;;;15.93;63.58
19286;BME280;9776;50.798;6.430;2022-09-01T02:44:02;100609.66;;;15.78;63.69
19286;BME280;9776;50.798;6.430;2022-09-01T02:46:30;100607.94;;;15.85;63.56
19286;BME280;9776;50.798;6.430;2022-09-01T02:48:58;100611.94;;;15.81;63.72
19286;BME280;9776;50.798;6.430;2022-09-01T02:51:27;100611.78;;;15.83;63.46
19286;BME280;9776;50.798;6.430;2022-09-01T02:53:53;100613.31;;;15.77;63.72
19286;BME280;9776;50.798;6.430;2022-09-01T02:56:22;100611.16;;;15.73;63.81
19286;BME280;9776;50.798;6.430;2022-09-01T02:58:49;100612.00;;;15.73;63.95
19286;BME280;9776;50.798;6.430;2022-09-01T03:01:18;100601.47;;;15.80;63.68
19286;BME280;9776;50.798;6.430;2022-09-01T03:03:47;100600.28;;;15.82;63.76
19286;BME280;9776;50.798;6.430;2022-09-01T03:06:15;100598.19;;;15.78;63.72
19286;BME280;9776;50.798;6.430;2022-09-01T03:08:49;100601.78;;;15.85;63.63
19286;BME280;9776;50.798;6.430;2022-09-01T03:11:16;100598.75;;;15.88;63.57
19286;BME280;9776;50.798;6.430;2022-09-01T03:13:43;100592.94;;;15.84;63.36
19286;BME280;9776;50.798;6.430;2022-09-01T03:16:10;100598.88;;;15.95;63.13
19286;BME280;9776;50.798;6.430;2022-09-01T03:18:38;100598.75;;;15.88;63.15
19286;BME280;9776;50.798;6.430;2022-09-01T03:21:06;100599.81;;;15.79;63.50
19286;BME280;9776;50.798;6.430;2022-09-01T03:23:35;100597.81;;;16.26;62.96
19286;BME280;9776;50.798;6.430;2022-09-01T03:26:03;100602.19;;;16.42;61.97
19286;BME280;9776;50.798;6.430;2022-09-01T03:28:29;100605.56;;;16.36;61.99
19286;BME280;9776;50.798;6.430;2022-09-01T03:30:56;100599.78;;;16.99;61.55
19286;BME280;9776;50.798;6.430;2022-09-01T03:33:25;100601.97;;;17.75;60.72
19286;BME280;9776;50.798;6.430;2022-09-01T03:35:52;100602.34;;;18.36;59.33
19286;BME280;9776;50.798;6.430;2022-09-01T03:38:19;100596.75;;;18.80;58.47
19286;BME280;9776;50.798;6.430;2022-09-01T03:40:51;100603.41;;;18.90;57.73
19286;BME280;9776;50.798;6.430;2022-09-01T03:43:19;100598.72;;;18.43;57.95
19286;BME280;9776;50.798;6.430;2022-09-01T03:45:51;100598.00;;;17.86;58.73
19286;BME280;9776;50.798;6.430;2022-09-01T03:48:20;100597.50;;;17.46;59.21
19286;BME280;9776;50.798;6.430;2022-09-01T03:50:47;100594.44;;;16.99;60.46
19286;BME280;9776;50.798;6.430;2022-09-01T03:53:17;100600.59;;;16.70;60.85
19286;BME280;9776;50.798;6.430;2022-09-01T03:55:46;100605.72;;;16.57;61.34
19286;BME280;9776;50.798;6.430;2022-09-01T03:58:17;100601.16;;;16.43;61.32
19286;BME280;9776;50.798;6.430;2022-09-01T04:00:47;100600.63;;;16.25;61.56
19286;BME280;9776;50.798;6.430;2022-09-01T04:03:15;100602.09;;;16.13;61.68
19286;BME280;9776;50.798;6.430;2022-09-01T04:05:49;100601.84;;;16.00;61.81
19286;BME280;9776;50.798;6.430;2022-09-01T04:08:17;100599.38;;;15.98;62.04
19286;BME280;9776;50.798;6.430;2022-09-01T04:10:46;100602.66;;;15.77;62.05
19286;BME280;9776;50.798;6.430;2022-09-01T04:13:16;100605.72;;;15.66;62.63
19286;BME280;9776;50.798;6.430;2022-09-01T04:15:43;100597.91;;;15.65;62.46
19286;BME280;9776;50.798;6.430;2022-09-01T04:18:10;100590.69;;;15.51;62.86
19286;BME280;9776;50.798;6.430;2022-09-01T04:20:45;100592.19;;;15.45;63.11
19286;BME280;9776;50.798;6.430;2022-09-01T04:23:18;100593.06;;;15.29;63.40
19286;BME280;9776;50.798;6.430;2022-09-01T04:25:51;100596.31;;;15.17;63.87
19286;BME280;9776;50.798;6.430;2022-09-01T04:28:22;100603.78;;;15.13;63.95
19286;BME280;9776;50.798;6.430;2022-09-01T04:30:52;100604.66;;;15.06;63.93
19286;BME280;9776;50.798;6.430;2022-09-01T04:33:20;100601.66;;;15.01;64.07
19286;BME280;9776;50.798;6.430;2022-09-01T04:35:47;100606.97;;;15.01;64.17
19286;BME280;9776;50.798;6.430;2022-09-01T04:38:15;100604.81;;;15.04;64.00
19286;BME280;9776;50.798;6.430;2022-09-01T04:40:42;100609.63;;;15.01;64.07
19286;BME280;9776;50.798;6.430;2022-09-01T04:43:09;100605.03;;;14.95;64.41
19286;BME280;9776;50.798;6.430;2022-09-01T04:45:37;100611.00;;;14.97;64.27
19286;BME280;9776;50.798;6.430;2022-09-01T04:48:05;100612.97;;;15.03;64.18
19286;BME280;9776;50.798;6.430;2022-09-01T04:50:32;100612.97;;;15.03;64.30
19286;BME280;9776;50.798;6.430;2022-09-01T04:53:01;100614.94;;;15.01;64.35
19286;BME280;9776;50.798;6.430;2022-09-01T04:55:29;100615.63;;;15.03;64.06
19286;BME280;9776;50.798;6.430;2022-09-01T04:57:57;100604.53;;;14.91;64.40
19286;BME280;9776;50.798;6.430;2022-09-01T05:00:26;100606.38;;;14.83;64.58
19286;BME280;9776;50.798;6.430;2022-09-01T05:02:59;100611.38;;;14.86;64.65
19286;BME280;9776;50.798;6.430;2022-09-01T05:05:34;100611.66;;;14.91;64.70
19286;BME280;9776;50.798;6.430;2022-09-01T05:08:04;100614.16;;;14.92;64.60
19286;BME280;9776;50.798;6.430;2022-09-01T05:10:31;100616.34;;;14.89;64.66
19286;BME280;9776;50.798;6.430;2022-09-01T05:12:58;100615.31;;;14.98;64.59
19286;BME280;9776;50.798;6.430;2022-09-01T05:15:26;100620.13;;;14.94;64.81
19286;BME280;9776;50.798;6.430;2022-09-01T05:17:55;100618.31;;;14.87;64.80
19286;BME280;9776;50.798;6.430;2022-09-01T05:20:27;100618.34;;;14.78;65.15
19286;BME280;9776;50.798;6.430;2022-09-01T05:22:56;100607.72;;;14.70;65.11
19286;BME280;9776;50.798;6.430;2022-09-01T05:25:22;100612.88;;;14.72;65.32
19286;BME280;9776;50.798;6.430;2022-09-01T05:27:50;100614.19;;;14.76;65.13
19286;BME280;9776;50.798;6.430;2022-09-01T05:30:17;100610.03;;;14.82;64.88
19286;BME280;9776;50.798;6.430;2022-09-01T05:32:43;100614.69;;;14.80;64.74
19286;BME280;9776;50.798;6.430;2022-09-01T05:35:12;100615.69;;;14.78;64.96
19286;BME280;9776;50.798;6.430;2022-09-01T05:37:41;100621.19;;;14.77;64.79
19286;BME280;9776;50.798;6.430;2022-09-01T05:40:09;100623.00;;;14.76;65.04
19286;BME280;9776;50.798;6.430;2022-09-01T05:42:40;100630.31;;;14.83;64.79
19286;BME280;9776;50.798;6.430;2022-09-01T05:45:08;100618.84;;;14.82;65.13
19286;BME280;9776;50.798;6.430;2022-09-01T05:47:36;100630.63;;;14.88;64.74
19286;BME280;9776;50.798;6.430;2022-09-01T05:50:03;100632.91;;;14.99;64.71
19286;BME280;9776;50.798;6.430;2022-09-01T05:52:36;100630.91;;;15.01;64.82
19286;BME280;9776;50.798;6.430;2022-09-01T05:55:06;100625.75;;;15.07;64.75
19286;BME280;9776;50.798;6.430;2022-09-01T05:57:34;100631.56;;;15.11;64.52
19286;BME280;9776;50.798;6.430;2022-09-01T06:00:05;100633.34;;;15.18;64.56
19286;BME280;9776;50.798;6.430;2022-09-01T06:02:39;100629.50;;;15.29;64.67
19286;BME280;9776;50.798;6.430;2022-09-01T06:05:07;100625.09;;;15.44;64.36
19286;BME280;9776;50.798;6.430;2022-09-01T06:07:35;100627.06;;;15.58;63.68
19286;BME280;9776;50.798;6.430;2022-09-01T06:10:03;100635.16;;;15.65;63.74
19286;BME280;9776;50.798;6.430;2022-09-01T06:12:31;100636.97;;;15.72;64.07
19286;BME280;9776;50.798;6.430;2022-09-01T06:14:59;100643.19;;;15.87;63.40
19286;BME280;9776;50.798;6.430;2022-09-01T06:17:26;100636.75;;;16.05;63.20
19286;BME280;9776;50.798;6.430;2022-09-01T06:19:55;100641.97;;;16.21;62.90
19286;BME280;9776;50.798;6.430;2022-09-01T06:22:24;100643.06;;;16.49;62.75
19286;BME280;9776;50.798;6.430;2022-09-01T06:24:51;100641.31;;;16.79;62.17
19286;BME280;9776;50.798;6.430;2022-09-01T06:27:19;100639.22;;;17.18;61.09
19286;BME280;9776;50.798;6.430;2022-09-01T06:29:47;100638.63;;;17.67;60.03
19286;BME280;9776;50.798;6.430;2022-09-01T06:32:16;100641.69;;;17.99;59.29
19286;BME280;9776;50.798;6.430;2022-09-01T06:34:43;100643.34;;;18.43;58.56
19286;BME280;9776;50.798;6.430;2022-09-01T06:37:15;100646.22;;;18.97;57.11
19286;BME280;9776;50.798;6.430;2022-09-01T06:39:47;100644.91;;;19.48;56.09
19286;BME280;9776;50.798;6.430;2022-09-01T06:42:14;100649.38;;;19.82;55.01
19286;BME280;9776;50.798;6.430;2022-09-01T06:44:42;100648.06;;;20.25;54.36
19286;BME280;9776;50.798;6.430;2022-09-01T06:47:11;100653.84;;;20.68;53.30
19286;BME280;9776;50.798;6.430;2022-09-01T06:49:39;100656.88;;;21.24;51.84
19286;BME280;9776;50.798;6.430;2022-09-01T06:52:06;100646.34;;;21.74;50.75
19286;BME280;9776;50.798;6.430;2022-09-01T06:54:33;100648.00;;;22.19;49.58
19286;BME280;9776;50.798;6.430;2022-09-01T06:57:04;100647.25;;;22.61;48.60
19286;BME280;9776;50.798;6.430;2022-09-01T06:59:31;100654.50;;;22.86;47.85
19286;BME280;9776;50.798;6.430;2022-09-01T07:01:58;100657.47;;;23.21;46.96
19286;BME280;9776;50.798;6.430;2022-09-01T07:04:27;100654.41;;;23.71;45.79
19286;BME280;9776;50.798;6.430;2022-09-01T07:06:55;100647.59;;;23.99;45.16
19286;BME280;9776;50.798;6.430;2022-09-01T07:09:23;100652.97;;;24.17;44.45
19286;BME280;9776;50.798;6.430;2022-09-01T07:11:49;100656.47;;;24.47;43.69
19286;BME280;9776;50.798;6.430;2022-09-01T07:14:16;100653.31;;;24.85;43.01
19286;BME280;9776;50.798;6.430;2022-09-01T07:16:43;100654.63;;;24.94;42.68
19286;BME280;9776;50.798;6.430;2022-09-01T07:19:11;100655.19;;;25.31;41.72
19286;BME280;9776;50.798;6.430;2022-09-01T07:21:41;100656.94;;;25.49;41.36
19286;BME280;9776;50.798;6.430;2022-09-01T07:24:08;100648.47;;;25.85;40.53
19286;BME280;9776;50.798;6.430;2022-09-01T07:26:36;100640.78;;;26.22;39.68
19286;BME280;9776;50.798;6.430;2022-09-01T07:29:04;100650.31;;;26.74;38.67
19286;BME280;9776;50.798;6.430;2022-09-01T07:31:33;100647.66;;;27.13;37.98
19286;BME280;9776;50.798;6.430;2022-09-01T07:34:02;100643.72;;;27.64;36.96
19286;BME280;9776;50.798;6.430;2022-09-01T07:36:30;100644.50;;;28.07;36.11
19286;BME280;9776;50.798;6.430;2022-09-01T07:38:59;100638.53;;;28.37;35.82
19286;BME280;9776;50.798;6.430;2022-09-01T07:41:26;100648.84;;;28.67;34.95
19286;BME280;9776;50.798;6.430;2022-09-01T07:43:53;100650.75;;;29.08;34.39
19286;BME280;9776;50.798;6.430;2022-09-01T07:46:21;100650.09;;;29.38;33.59
19286;BME280;9776;50.798;6.430;2022-09-01T07:48:51;100650.25;;;29.73;32.98
19286;BME280;9776;50.798;6.430;2022-09-01T07:51:20;100647.09;;;30.17;32.20
19286;BME280;9776;50.798;6.430;2022-09-01T07:53:48;100646.31;;;30.52;31.92
19286;BME280;9776;50.798;6.430;2022-09-01T07:56:18;100643.59;;;30.67;31.16
19286;BME280;9776;50.798;6.430;2022-09-01T07:58:46;100645.75;;;30.90;30.99
19286;BME280;9776;50.798;6.430;2022-09-01T08:01:15;100646.75;;;31.29;30.45
19286;BME280;9776;50.798;6.430;2022-09-01T08:03:43;100646.41;;;31.56;29.93
19286;BME280;9776;50.798;6.430;2022-09-01T08:06:12;100648.16;;;31.86;29.30
19286;BME280;9776;50.798;6.430;2022-09-01T08:08:40;100640.34;;;32.13;28.99
19286;BME280;9776;50.798;6.430;2022-09-01T08:11:07;100645.44;;;32.64;28.30
19286;BME280;9776;50.798;6.430;2022-09-01T08:13:36;100649.16;;;33.01;27.59
19286;BME280;9776;50.798;6.430;2022-09-01T08:16:04;100648.47;;;33.38;27.20
19286;BME280;9776;50.798;6.430;2022-09-01T08:18:31;100649.09;;;33.54;26.81
19286;BME280;9776;50.798;6.430;2022-09-01T08:20:58;100654.88;;;33.52;26.78
19286;BME280;9776;50.798;6.430;2022-09-01T08:23:25;100642.50;;;33.79;26.09
19286;BME280;9776;50.798;6.430;2022-09-01T08:25:52;100643.69;;;34.10;25.75
19286;BME280;9776;50.798;6.430;2022-09-01T08:28:19;100647.41;;;34.19;25.52
19286;BME280;9776;50.798;6.430;2022-09-01T08:30:47;100637.91;;;34.30;25.21
19286;BME280;9776;50.798;6.430;2022-09-01T08:33:14;100639.97;;;34.52;25.10
19286;BME280;9776;50.798;6.430;2022-09-01T08:35:44;100631.69;;;35.03;24.34
19286;BME280;9776;50.798;6.430;2022-09-01T08:38:11;100633.81;;;35.33;24.16
19286;BME280;9776;50.798;6.430;2022-09-01T08:40:40;100629.88;;;35.88;23.41
19286;BME280;9776;50.798;6.430;2022-09-01T08:43:13;100629.75;;;35.94;23.22
19286;BME280;9776;50.798;6.430;2022-09-01T08:45:47;100624.13;;;36.57;22.95
19286;BME280;9776;50.798;6.430;2022-09-01T08:48:18;100632.16;;;37.15;22.36
19286;BME280;9776;50.798;6.430;2022-09-01T08:50:49;100626.94;;;37.44;21.94
19286;BME280;9776;50.798;6.430;2022-09-01T08:53:24;100632.22;;;37.97;20.95
19286;BME280;9776;50.798;6.430;2022-09-01T08:55:56;100631.75;;;38.03;21.49
19286;BME280;9776;50.798;6.430;2022-09-01T08:58:24;100629.25;;;38.45;20.65
19286;BME280;9776;50.798;6.430;2022-09-01T09:00:55;100621.03;;;38.91;20.10
19286;BME280;9776;50.798;6.430;2022-09-01T09:03:32;100622.66;;;39.30;19.87
19286;BME280;9776;50.798;6.430;2022-09-01T09:06:12;100623.41;;;39.60;19.59
19286;BME280;9776;50.798;6.430;2022-09-01T09:08:51;100620.44;;;40.27;18.86
19286;BME280;9776;50.798;6.430;2022-09-01T09:11:32;100617.03;;;40.75;18.45
19286;BME280;9776;50.798;6.430;2022-09-01T09:14:05;100614.78;;;41.01;18.32
19286;BME280;9776;50.798;6.430;2022-09-01T09:16:39;100616.81;;;41.04;17.98
19286;BME280;9776;50.798;6.430;2022-09-01T09:19:10;100611.97;;;41.25;18.07
19286;BME280;9776;50.798;6.430;2022-09-01T09:21:40;100602.97;;;41.53;17.85
19286;BME280;9776;50.798;6.430;2022-09-01T09:24:12;100602.47;;;41.75;17.52
19286;BME280;9776;50.798;6.430;2022-09-01T09:26:47;100602.69;;;41.70;17.53
19286;BME280;9776;50.798;6.430;2022-09-01T09:29:13;100604.34;;;41.99;17.46
19286;BME280;9776;50.798;6.430;2022-09-01T09:31:41;100593.94;;;42.67;16.38
19286;BME280;9776;50.798;6.430;2022-09-01T09:34:17;100585.59;;;42.98;16.63
19286;BME280;9776;50.798;6.430;2022-09-01T09:36:44;100593.38;;;42.92;16.42
19286;BME280;9776;50.798;6.430;2022-09-01T09:39:13;100587.84;;;42.77;16.17
19286;BME280;9776;50.798;6.430;2022-09-01T09:41:43;100572.91;;;42.97;16.20
19286;BME280;9776;50.798;6.430;2022-09-01T09:44:29;100574.78;;;43.43;15.84
19286;BME280;9776;50.798;6.430;2022-09-01T09:46:58;100568.56;;;43.88;14.99
19286;BME280;9776;50.798;6.430;2022-09-01T09:49:26;100559.75;;;44.05;15.22
19286;BME280;9776;50.798;6.430;2022-09-01T09:51:55;100558.31;;;43.54;15.18
19286;BME280;9776;50.798;6.430;2022-09-01T09:54:25;100554.72;;;43.73;15.19
19286;BME280;9776;50.798;6.430;2022-09-01T09:57:08;100550.91;;;43.62;15.23
19286;BME280;9776;50.798;6.430;2022-09-01T09:59:37;100555.13;;;44.32;14.23
19286;BME280;9776;50.798;6.430;2022-09-01T10:02:23;100555.97;;;44.82;13.70
19286;BME280;9776;50.798;6.430;2022-09-01T10:04:51;100559.09;;;44.12;14.09
19286;BME280;9776;50.798;6.430;2022-09-01T10:07:26;100543.38;;;43.08;14.55
19286;BME280;9776;50.798;6.430;2022-09-01T10:09:54;100544.00;;;42.55;14.91
19286;BME280;9776;50.798;6.430;2022-09-01T10:12:22;100542.56;;;43.62;14.12
19286;BME280;9776;50.798;6.430;2022-09-01T10:14:52;100551.97;;;44.56;13.16
19286;BME280;9776;50.798;6.430;2022-09-01T10:17:24;100541.03;;;45.20;13.01
19286;BME280;9776;50.798;6.430;2022-09-01T10:19:56;100543.00;;;45.45;12.86
19286;BME280;9776;50.798;6.430;2022-09-01T10:22:24;100531.75;;;45.38;12.94
19286;BME280;9776;50.798;6.430;2022-09-01T10:24:51;100535.72;;;44.58;13.27
19286;BME280;9776;50.798;6.430;2022-09-01T10:27:20;100531.50;;;41.46;15.08
19286;BME280;9776;50.798;6.430;2022-09-01T10:29:51;100530.53;;;40.09;16.40
19286;BME280;9776;50.798;6.430;2022-09-01T10:32:25;100525.09;;;40.94;15.78
19286;BME280;9776;50.798;6.430;2022-09-01T10:34:56;100529.72;;;40.20;15.92
19286;BME280;9776;50.798;6.430;2022-09-01T10:37:23;100522.03;;;40.26;15.96
19286;BME280;9776;50.798;6.430;2022-09-01T10:40:11;100521.31;;;40.98;15.21
19286;BME280;9776;50.798;6.430;2022-09-01T10:42:39;100514.56;;;42.34;14.36
19286;BME280;9776;50.798;6.430;2022-09-01T10:45:15;100515.22;;;43.10;13.55
19286;BME280;9776;50.798;6.430;2022-09-01T10:47:45;100509.72;;;42.16;14.46
19286;BME280;9776;50.798;6.430;2022-09-01T10:50:24;100518.94;;;42.35;14.37
19286;BME280;9776;50.798;6.430;2022-09-01T10:53:05;100514.16;;;43.33;13.97
19286;BME280;9776;50.798;6.430;2022-09-01T10:55:46;100513.75;;;43.70;13.41
19286;BME280;9776;50.798;6.430;2022-09-01T10:58:23;100516.31;;;43.05;14.03
19286;BME280;9776;50.798;6.430;2022-09-01T11:00:52;100507.75;;;41.21;14.98
19286;BME280;9776;50.798;6.430;2022-09-01T11:03:38;100496.69;;;40.48;15.28
19286;BME280;9776;50.798;6.430;2022-09-01T11:06:51;100499.44;;;39.38;16.40
19286;BME280;9776;50.798;6.430;2022-09-01T11:09:22;100492.09;;;38.08;17.65
19286;BME280;9776;50.798;6.430;2022-09-01T11:14:48;100502.19;;;39.79;16.00
19286;BME280;9776;50.798;6.430;2022-09-01T11:17:18;100493.72;;;38.09;17.38
19286;BME280;9776;50.798;6.430;2022-09-01T11:19:54;100488.66;;;39.45;16.24
19286;BME280;9776;50.798;6.430;2022-09-01T11:22:34;100484.78;;;40.11;15.92
19286;BME280;9776;50.798;6.430;2022-09-01T11:28:34;100491.00;;;42.13;14.46
19286;BME280;9776;50.798;6.430;2022-09-01T11:31:20;100493.25;;;43.20;13.89
19286;BME280;9776;50.798;6.430;2022-09-01T11:34:15;100490.88;;;41.38;15.23
19286;BME280;9776;50.798;6.430;2022-09-01T11:36:53;100489.09;;;40.94;15.50
19286;BME280;9776;50.798;6.430;2022-09-01T11:39:37;100487.19;;;42.33;14.49
19286;BME280;9776;50.798;6.430;2022-09-01T11:42:08;100475.63;;;43.89;13.18
19286;BME280;9776;50.798;6.430;2022-09-01T11:44:41;100487.63;;;44.88;12.97
19286;BME280;9776;50.798;6.430;2022-09-01T11:47:12;100490.38;;;45.44;12.46
19286;BME280;9776;50.798;6.430;2022-09-01T11:49:48;100484.31;;;43.30;13.63
19286;BME280;9776;50.798;6.430;2022-09-01T11:52:18;100471.00;;;40.72;15.31
19286;BME280;9776;50.798;6.430;2022-09-01T11:54:45;100482.75;;;40.93;15.32
19286;BME280;9776;50.798;6.430;2022-09-01T11:57:17;100477.94;;;42.13;14.59
19286;BME280;9776;50.798;6.430;2022-09-01T11:59:44;100470.31;;;43.42;13.58
19286;BME280;9776;50.798;6.430;2022-09-01T12:02:17;100469.19;;;44.53;13.18
19286;BME280;9776;50.798;6.430;2022-09-01T12:04:44;100468.00;;;45.07;12.95
19286;BME280;9776;50.798;6.430;2022-09-01T12:07:13;100461.06;;;44.45;13.36
19286;BME280;9776;50.798;6.430;2022-09-01T12:09:50;100465.06;;;42.05;14.41
19286;BME280;9776;50.798;6.430;2022-09-01T12:12:30;100452.31;;;39.55;16.08
19286;BME280;9776;50.798;6.430;2022-09-01T12:14:57;100446.47;;;38.19;17.48
19286;BME280;9776;50.798;6.430;2022-09-01T12:17:25;100456.50;;;37.17;18.42
19286;BME280;9776;50.798;6.430;2022-09-01T12:19:52;100458.56;;;36.07;19.30
19286;BME280;9776;50.798;6.430;2022-09-01T12:22:20;100450.34;;;37.03;18.64
19286;BME280;9776;50.798;6.430;2022-09-01T12:24:50;100444.66;;;38.98;16.87
19286;BME280;9776;50.798;6.430;2022-09-01T12:27:18;100448.00;;;39.04;16.86
19286;BME280;9776;50.798;6.430;2022-09-01T12:29:45;100445.00;;;37.75;17.89
19286;BME280;9776;50.798;6.430;2022-09-01T12:32:13;100442.75;;;37.17;18.31
19286;BME280;9776;50.798;6.430;2022-09-01T12:34:43;100443.13;;;38.04;17.88
19286;BME280;9776;50.798;6.430;2022-09-01T12:37:19;100444.91;;;39.67;16.50
19286;BME280;9776;50.798;6.430;2022-09-01T12:39:47;100440.09;;;40.34;16.19
19286;BME280;9776;50.798;6.430;2022-09-01T12:42:25;100440.22;;;39.92;16.29
19286;BME280;9776;50.798;6.430;2022-09-01T12:44:53;100443.19;;;40.32;15.89
19286;BME280;9776;50.798;6.430;2022-09-01T12:47:44;100438.69;;;41.28;15.13
19286;BME280;9776;50.798;6.430;2022-09-01T12:50:35;100443.09;;;41.84;14.78
19286;BME280;9776;50.798;6.430;2022-09-01T12:53:03;100434.56;;;40.34;15.76
19286;BME280;9776;50.798;6.430;2022-09-01T12:55:40;100429.38;;;39.01;17.07
19286;BME280;9776;50.798;6.430;2022-09-01T12:58:22;100421.47;;;37.77;17.65
19286;BME280;9776;50.798;6.430;2022-09-01T13:00:55;100421.00;;;36.33;19.14
19286;BME280;9776;50.798;6.430;2022-09-01T13:03:22;100423.28;;;34.98;20.37
19286;BME280;9776;50.798;6.430;2022-09-01T13:05:52;100417.97;;;34.06;21.15
19286;BME280;9776;50.798;6.430;2022-09-01T13:08:21;100419.34;;;33.25;21.78
19286;BME280;9776;50.798;6.430;2022-09-01T13:10:53;100409.88;;;32.80;22.37
19286;BME280;9776;50.798;6.430;2022-09-01T13:13:23;100410.03;;;32.41;23.15
19286;BME280;9776;50.798;6.430;2022-09-01T13:15:52;100415.38;;;32.04;23.31
19286;BME280;9776;50.798;6.430;2022-09-01T13:18:20;100412.31;;;31.82;23.62
19286;BME280;9776;50.798;6.430;2022-09-01T13:20:47;100411.16;;;31.59;23.78
19286;BME280;9776;50.798;6.430;2022-09-01T13:23:15;100404.38;;;31.46;24.05